Terminal Aerodrome Forecast
Issued by NWS Buffalo, NY

Home | Current Version | Previous Version | Text Only | Print | Product List | Glossary On
Versions: 1 2 3 4 5 6 7 8 9 10 11 12 13 14 15 16 17 18 19 20 21 22 23 24 25 26 27 28 29 30 31 32
000
FTUS41 KBUF 262300
TAFBUF
TAF
KBUF 262320Z 2700/2724 24010KT 2SM BR OVC002
     FM270300 24009KT 4SM BR OVC007
     FM270500 24007KT 6SM BR OVC012
     FM271300 26005KT 3SM -SN OVC025
     FM271700 32006KT 2SM -SN OVC015
     FM272000 36009KT 2SM -SN OVC015=

USA.gov is the U.S. government's official web portal to all federal, state and local government web resources and services.